sensor_id;sensor_type;location;lat;lon;timestamp;temperature;humidity
12901;DHT22;6518;50.930;5.344;2023-12-20T00:01:01;7.40;99.90
12901;DHT22;6518;50.930;5.344;2023-12-20T00:03:36;7.40;99.90
12901;DHT22;6518;50.930;5.344;2023-12-20T00:06:05;7.30;99.90
12901;DHT22;6518;50.930;5.344;2023-12-20T00:08:36;7.40;99.90
12901;DHT22;6518;50.930;5.344;2023-12-20T00:11:07;7.30;99.90
12901;DHT22;6518;50.930;5.344;2023-12-20T00:13:36;7.30;99.90
12901;DHT22;6518;50.930;5.344;2023-12-20T00:16:06;7.20;99.90
12901;DHT22;6518;50.930;5.344;2023-12-20T00:18:35;7.20;99.90
12901;DHT22;6518;50.930;5.344;2023-12-20T00:21:04;7.20;99.90
12901;DHT22;6518;50.930;5.344;2023-12-20T00:23:31;7.20;99.90
12901;DHT22;6518;50.930;5.344;2023-12-20T00:25:59;7.20;99.90
12901;DHT22;6518;50.930;5.344;2023-12-20T00:28:26;7.20;99.90
12901;DHT22;6518;50.930;5.344;2023-12-20T00:30:53;7.20;99.90
12901;DHT22;6518;50.930;5.344;2023-12-20T00:33:20;7.10;99.90
12901;DHT22;6518;50.930;5.344;2023-12-20T00:35:47;7.10;99.90
12901;DHT22;6518;50.930;5.344;2023-12-20T00:38:14;7.00;99.90
12901;DHT22;6518;50.930;5.344;2023-12-20T00:40:42;7.00;99.90
12901;DHT22;6518;50.930;5.344;2023-12-20T00:43:11;7.00;99.90
12901;DHT22;6518;50.930;5.344;2023-12-20T00:45:38;7.00;99.90
12901;DHT22;6518;50.930;5.344;2023-12-20T00:48:06;6.90;99.90
12901;DHT22;6518;50.930;5.344;2023-12-20T00:50:33;7.00;99.90
12901;DHT22;6518;50.930;5.344;2023-12-20T00:52:59;6.90;99.90
12901;DHT22;6518;50.930;5.344;2023-12-20T00:55:26;6.90;99.90
12901;DHT22;6518;50.930;5.344;2023-12-20T00:57:53;6.90;99.90
12901;DHT22;6518;50.930;5.344;2023-12-20T01:00:22;6.80;99.90
12901;DHT22;6518;50.930;5.344;2023-12-20T01:02:49;6.80;99.90
12901;DHT22;6518;50.930;5.344;2023-12-20T01:05:17;6.80;99.90
12901;DHT22;6518;50.930;5.344;2023-12-20T01:07:44;6.80;99.90
12901;DHT22;6518;50.930;5.344;2023-12-20T01:10:11;6.90;99.90
12901;DHT22;6518;50.930;5.344;2023-12-20T01:12:38;6.90;99.90
12901;DHT22;6518;50.930;5.344;2023-12-20T01:15:06;6.80;99.90
12901;DHT22;6518;50.930;5.344;2023-12-20T01:17:34;6.90;99.90
12901;DHT22;6518;50.930;5.344;2023-12-20T01:20:01;6.90;99.90
12901;DHT22;6518;50.930;5.344;2023-12-20T01:22:28;7.00;99.90
12901;DHT22;6518;50.930;5.344;2023-12-20T01:24:55;7.00;99.90
12901;DHT22;6518;50.930;5.344;2023-12-20T01:27:22;7.00;99.90
12901;DHT22;6518;50.930;5.344;2023-12-20T01:29:49;7.00;99.90
12901;DHT22;6518;50.930;5.344;2023-12-20T01:32:17;7.00;99.90
12901;DHT22;6518;50.930;5.344;2023-12-20T01:34:46;7.00;99.90
12901;DHT22;6518;50.930;5.344;2023-12-20T01:37:14;6.90;99.90
12901;DHT22;6518;50.930;5.344;2023-12-20T01:39:41;6.90;99.90
12901;DHT22;6518;50.930;5.344;2023-12-20T01:42:08;6.90;99.90
12901;DHT22;6518;50.930;5.344;2023-12-20T01:44:35;6.90;99.90
12901;DHT22;6518;50.930;5.344;2023-12-20T01:47:02;6.80;99.90
12901;DHT22;6518;50.930;5.344;2023-12-20T01:49:31;6.80;99.90
12901;DHT22;6518;50.930;5.344;2023-12-20T01:52:02;6.80;99.90
12901;DHT22;6518;50.930;5.344;2023-12-20T01:54:29;6.80;99.90
12901;DHT22;6518;50.930;5.344;2023-12-20T01:56:56;6.80;99.90
12901;DHT22;6518;50.930;5.344;2023-12-20T01:59:23;6.70;99.90
12901;DHT22;6518;50.930;5.344;2023-12-20T02:01:50;6.70;99.90
12901;DHT22;6518;50.930;5.344;2023-12-20T02:04:18;6.70;99.90
12901;DHT22;6518;50.930;5.344;2023-12-20T02:06:46;6.60;99.90
12901;DHT22;6518;50.930;5.344;2023-12-20T02:09:15;6.60;99.90
12901;DHT22;6518;50.930;5.344;2023-12-20T02:11:42;6.60;99.90
12901;DHT22;6518;50.930;5.344;2023-12-20T02:14:09;6.50;99.90
12901;DHT22;6518;50.930;5.344;2023-12-20T02:16:36;6.50;99.90
12901;DHT22;6518;50.930;5.344;2023-12-20T02:19:04;6.50;99.90
12901;DHT22;6518;50.930;5.344;2023-12-20T02:21:35;6.40;99.90
12901;DHT22;6518;50.930;5.344;2023-12-20T02:24:02;6.40;99.90
12901;DHT22;6518;50.930;5.344;2023-12-20T02:26:32;6.40;99.90
12901;DHT22;6518;50.930;5.344;2023-12-20T02:28:59;6.30;99.90
12901;DHT22;6518;50.930;5.344;2023-12-20T02:31:26;6.30;99.90
12901;DHT22;6518;50.930;5.344;2023-12-20T02:33:53;6.40;99.90
12901;DHT22;6518;50.930;5.344;2023-12-20T02:36:20;6.30;99.90
12901;DHT22;6518;50.930;5.344;2023-12-20T02:38:48;6.30;99.90
12901;DHT22;6518;50.930;5.344;2023-12-20T02:41:16;6.30;99.90
12901;DHT22;6518;50.930;5.344;2023-12-20T02:43:43;6.30;99.90
12901;DHT22;6518;50.930;5.344;2023-12-20T02:46:11;6.40;99.90
12901;DHT22;6518;50.930;5.344;2023-12-20T02:48:39;6.30;99.90
12901;DHT22;6518;50.930;5.344;2023-12-20T02:51:07;6.40;99.90
12901;DHT22;6518;50.930;5.344;2023-12-20T02:53:36;6.40;99.90
12901;DHT22;6518;50.930;5.344;2023-12-20T02:56:05;6.40;99.90
12901;DHT22;6518;50.930;5.344;2023-12-20T02:58:32;6.30;99.90
12901;DHT22;6518;50.930;5.344;2023-12-20T03:00:59;6.30;99.90
12901;DHT22;6518;50.930;5.344;2023-12-20T03:03:26;6.30;99.90
12901;DHT22;6518;50.930;5.344;2023-12-20T03:05:53;6.30;99.90
12901;DHT22;6518;50.930;5.344;2023-12-20T03:08:20;6.30;99.90
12901;DHT22;6518;50.930;5.344;2023-12-20T03:10:47;6.40;99.90
12901;DHT22;6518;50.930;5.344;2023-12-20T03:13:15;6.40;99.90
12901;DHT22;6518;50.930;5.344;2023-12-20T03:15:42;6.40;99.90
12901;DHT22;6518;50.930;5.344;2023-12-20T03:18:09;6.40;99.90
12901;DHT22;6518;50.930;5.344;2023-12-20T03:20:36;6.40;99.90
12901;DHT22;6518;50.930;5.344;2023-12-20T03:23:03;6.40;99.90
12901;DHT22;6518;50.930;5.344;2023-12-20T03:25:30;6.40;99.90
12901;DHT22;6518;50.930;5.344;2023-12-20T03:27:57;6.40;99.90
12901;DHT22;6518;50.930;5.344;2023-12-20T03:30:25;6.30;99.90
12901;DHT22;6518;50.930;5.344;2023-12-20T03:32:52;6.30;99.90
12901;DHT22;6518;50.930;5.344;2023-12-20T03:35:19;6.30;99.90
12901;DHT22;6518;50.930;5.344;2023-12-20T03:37:46;6.30;99.90
12901;DHT22;6518;50.930;5.344;2023-12-20T03:40:13;6.30;99.90
12901;DHT22;6518;50.930;5.344;2023-12-20T03:42:40;6.30;99.90
12901;DHT22;6518;50.930;5.344;2023-12-20T03:45:08;6.30;99.90
12901;DHT22;6518;50.930;5.344;2023-12-20T03:47:37;6.30;99.90
12901;DHT22;6518;50.930;5.344;2023-12-20T03:50:05;6.30;99.90
12901;DHT22;6518;50.930;5.344;2023-12-20T03:52:32;6.30;99.90
12901;DHT22;6518;50.930;5.344;2023-12-20T03:54:58;6.30;99.90
12901;DHT22;6518;50.930;5.344;2023-12-20T03:57:25;6.30;99.90
12901;DHT22;6518;50.930;5.344;2023-12-20T03:59:52;6.30;99.90
12901;DHT22;6518;50.930;5.344;2023-12-20T04:02:19;6.30;99.90
12901;DHT22;6518;50.930;5.344;2023-12-20T04:04:47;6.30;99.90
12901;DHT22;6518;50.930;5.344;2023-12-20T04:07:14;6.40;99.90
12901;DHT22;6518;50.930;5.344;2023-12-20T04:09:41;6.30;99.90
12901;DHT22;6518;50.930;5.344;2023-12-20T04:12:08;6.30;99.90
12901;DHT22;6518;50.930;5.344;2023-12-20T04:14:35;6.30;99.90
12901;DHT22;6518;50.930;5.344;2023-12-20T04:17:02;6.40;99.90
12901;DHT22;6518;50.930;5.344;2023-12-20T04:19:30;6.40;99.90
12901;DHT22;6518;50.930;5.344;2023-12-20T04:21:58;6.40;99.90
12901;DHT22;6518;50.930;5.344;2023-12-20T04:24:25;6.40;99.90
12901;DHT22;6518;50.930;5.344;2023-12-20T04:26:52;6.40;99.90
12901;DHT22;6518;50.930;5.344;2023-12-20T04:29:19;6.50;99.90
12901;DHT22;6518;50.930;5.344;2023-12-20T04:31:45;6.50;99.90
12901;DHT22;6518;50.930;5.344;2023-12-20T04:34:13;6.50;99.90
12901;DHT22;6518;50.930;5.344;2023-12-20T04:36:40;6.40;99.90
12901;DHT22;6518;50.930;5.344;2023-12-20T04:39:08;6.90;99.90
12901;DHT22;6518;50.930;5.344;2023-12-20T04:41:35;6.40;99.90
12901;DHT22;6518;50.930;5.344;2023-12-20T04:44:02;6.40;99.90
12901;DHT22;6518;50.930;5.344;2023-12-20T04:46:29;6.40;99.90
12901;DHT22;6518;50.930;5.344;2023-12-20T04:48:56;6.50;99.90
12901;DHT22;6518;50.930;5.344;2023-12-20T04:51:23;6.40;99.90
12901;DHT22;6518;50.930;5.344;2023-12-20T04:53:50;6.40;99.90
12901;DHT22;6518;50.930;5.344;2023-12-20T04:56:18;6.40;99.90
12901;DHT22;6518;50.930;5.344;2023-12-20T04:58:45;6.50;99.90
12901;DHT22;6518;50.930;5.344;2023-12-20T05:01:13;6.50;99.90
12901;DHT22;6518;50.930;5.344;2023-12-20T05:03:39;6.50;99.90
12901;DHT22;6518;50.930;5.344;2023-12-20T05:06:07;6.50;99.90
12901;DHT22;6518;50.930;5.344;2023-12-20T05:08:33;6.50;99.90
12901;DHT22;6518;50.930;5.344;2023-12-20T05:11:00;6.50;99.90
12901;DHT22;6518;50.930;5.344;2023-12-20T05:13:29;6.50;99.90
12901;DHT22;6518;50.930;5.344;2023-12-20T05:15:56;6.50;99.90
12901;DHT22;6518;50.930;5.344;2023-12-20T05:18:23;6.40;99.90
12901;DHT22;6518;50.930;5.344;2023-12-20T05:20:50;6.50;99.90
12901;DHT22;6518;50.930;5.344;2023-12-20T05:23:18;6.50;99.90
12901;DHT22;6518;50.930;5.344;2023-12-20T05:25:46;6.50;99.90
12901;DHT22;6518;50.930;5.344;2023-12-20T05:28:12;6.50;99.90
12901;DHT22;6518;50.930;5.344;2023-12-20T05:30:41;6.50;99.90
12901;DHT22;6518;50.930;5.344;2023-12-20T05:33:08;6.40;99.90
12901;DHT22;6518;50.930;5.344;2023-12-20T05:35:35;6.40;99.90
12901;DHT22;6518;50.930;5.344;2023-12-20T05:38:02;6.40;99.90
12901;DHT22;6518;50.930;5.344;2023-12-20T05:40:28;6.40;99.90
12901;DHT22;6518;50.930;5.344;2023-12-20T05:42:55;6.40;99.90
12901;DHT22;6518;50.930;5.344;2023-12-20T05:45:22;6.40;99.90
12901;DHT22;6518;50.930;5.344;2023-12-20T05:47:51;6.30;99.90
12901;DHT22;6518;50.930;5.344;2023-12-20T05:50:18;6.30;99.90
12901;DHT22;6518;50.930;5.344;2023-12-20T05:52:45;6.20;99.90
12901;DHT22;6518;50.930;5.344;2023-12-20T05:55:12;6.20;99.90
12901;DHT22;6518;50.930;5.344;2023-12-20T05:57:39;6.20;99.90
12901;DHT22;6518;50.930;5.344;2023-12-20T06:00:08;6.10;99.90
12901;DHT22;6518;50.930;5.344;2023-12-20T06:02:35;6.10;99.90
12901;DHT22;6518;50.930;5.344;2023-12-20T06:05:06;6.10;99.90
12901;DHT22;6518;50.930;5.344;2023-12-20T06:07:33;6.10;99.90
12901;DHT22;6518;50.930;5.344;2023-12-20T06:10:01;6.00;99.90
12901;DHT22;6518;50.930;5.344;2023-12-20T06:12:28;5.90;99.90
12901;DHT22;6518;50.930;5.344;2023-12-20T06:14:57;6.00;99.90
12901;DHT22;6518;50.930;5.344;2023-12-20T06:17:24;6.00;99.90
12901;DHT22;6518;50.930;5.344;2023-12-20T06:19:52;6.00;99.90
12901;DHT22;6518;50.930;5.344;2023-12-20T06:22:20;6.00;99.90
12901;DHT22;6518;50.930;5.344;2023-12-20T06:24:47;6.00;99.90
12901;DHT22;6518;50.930;5.344;2023-12-20T06:27:14;5.90;99.90
12901;DHT22;6518;50.930;5.344;2023-12-20T06:29:41;5.90;99.90
12901;DHT22;6518;50.930;5.344;2023-12-20T06:32:10;6.00;99.90
12901;DHT22;6518;50.930;5.344;2023-12-20T06:34:37;6.00;99.90
12901;DHT22;6518;50.930;5.344;2023-12-20T06:37:04;6.00;99.90
12901;DHT22;6518;50.930;5.344;2023-12-20T06:39:33;6.00;99.90
12901;DHT22;6518;50.930;5.344;2023-12-20T06:42:01;6.10;99.90
12901;DHT22;6518;50.930;5.344;2023-12-20T06:44:29;6.10;99.90
12901;DHT22;6518;50.930;5.344;2023-12-20T06:46:57;6.10;99.90
12901;DHT22;6518;50.930;5.344;2023-12-20T06:49:24;6.10;99.90
12901;DHT22;6518;50.930;5.344;2023-12-20T06:51:51;6.20;99.90
12901;DHT22;6518;50.930;5.344;2023-12-20T06:54:22;6.20;99.90
12901;DHT22;6518;50.930;5.344;2023-12-20T06:56:50;6.10;99.90
12901;DHT22;6518;50.930;5.344;2023-12-20T06:59:17;6.10;99.90
12901;DHT22;6518;50.930;5.344;2023-12-20T07:01:47;6.10;99.90
12901;DHT22;6518;50.930;5.344;2023-12-20T07:04:15;6.10;99.90
12901;DHT22;6518;50.930;5.344;2023-12-20T07:06:42;6.10;99.90
12901;DHT22;6518;50.930;5.344;2023-12-20T07:09:09;6.10;99.90
12901;DHT22;6518;50.930;5.344;2023-12-20T07:11:39;6.10;99.90
12901;DHT22;6518;50.930;5.344;2023-12-20T07:14:07;6.10;99.90
12901;DHT22;6518;50.930;5.344;2023-12-20T07:16:34;6.00;99.90
12901;DHT22;6518;50.930;5.344;2023-12-20T07:19:01;6.00;99.90
12901;DHT22;6518;50.930;5.344;2023-12-20T07:21:28;6.00;99.90
12901;DHT22;6518;50.930;5.344;2023-12-20T07:23:55;6.00;99.90
12901;DHT22;6518;50.930;5.344;2023-12-20T07:26:22;6.00;99.90
12901;DHT22;6518;50.930;5.344;2023-12-20T07:28:50;6.00;99.90
12901;DHT22;6518;50.930;5.344;2023-12-20T07:31:18;6.00;99.90
12901;DHT22;6518;50.930;5.344;2023-12-20T07:33:46;6.00;99.90
12901;DHT22;6518;50.930;5.344;2023-12-20T07:36:14;6.00;99.90
12901;DHT22;6518;50.930;5.344;2023-12-20T07:38:41;6.00;99.90
12901;DHT22;6518;50.930;5.344;2023-12-20T07:41:10;6.00;99.90
12901;DHT22;6518;50.930;5.344;2023-12-20T07:43:37;6.00;99.90
12901;DHT22;6518;50.930;5.344;2023-12-20T07:46:05;6.00;99.90
12901;DHT22;6518;50.930;5.344;2023-12-20T07:48:34;6.00;99.90
12901;DHT22;6518;50.930;5.344;2023-12-20T07:51:03;6.00;99.90
12901;DHT22;6518;50.930;5.344;2023-12-20T07:53:31;6.00;99.90
12901;DHT22;6518;50.930;5.344;2023-12-20T07:55:58;6.00;99.90
12901;DHT22;6518;50.930;5.344;2023-12-20T07:58:25;6.00;99.90
12901;DHT22;6518;50.930;5.344;2023-12-20T08:00:53;6.00;99.90
12901;DHT22;6518;50.930;5.344;2023-12-20T08:03:20;6.00;99.90
12901;DHT22;6518;50.930;5.344;2023-12-20T08:05:48;6.00;99.90
12901;DHT22;6518;50.930;5.344;2023-12-20T08:08:16;6.00;99.90
12901;DHT22;6518;50.930;5.344;2023-12-20T08:10:43;6.00;99.90
12901;DHT22;6518;50.930;5.344;2023-12-20T08:13:10;6.00;99.90
12901;DHT22;6518;50.930;5.344;2023-12-20T08:15:38;6.00;99.90
12901;DHT22;6518;50.930;5.344;2023-12-20T08:18:05;6.00;99.90
12901;DHT22;6518;50.930;5.344;2023-12-20T08:20:36;6.00;99.90
12901;DHT22;6518;50.930;5.344;2023-12-20T08:23:05;6.00;99.90
12901;DHT22;6518;50.930;5.344;2023-12-20T08:25:32;6.10;99.90
12901;DHT22;6518;50.930;5.344;2023-12-20T08:27:59;6.10;99.90
12901;DHT22;6518;50.930;5.344;2023-12-20T08:30:27;6.10;99.90
12901;DHT22;6518;50.930;5.344;2023-12-20T08:32:55;6.20;99.90
12901;DHT22;6518;50.930;5.344;2023-12-20T08:35:22;6.20;99.90
12901;DHT22;6518;50.930;5.344;2023-12-20T08:37:49;6.20;99.90
12901;DHT22;6518;50.930;5.344;2023-12-20T08:40:18;6.20;99.90
12901;DHT22;6518;50.930;5.344;2023-12-20T08:42:45;6.30;99.90
12901;DHT22;6518;50.930;5.344;2023-12-20T08:45:12;6.30;99.90
12901;DHT22;6518;50.930;5.344;2023-12-20T08:47:39;6.30;99.90
12901;DHT22;6518;50.930;5.344;2023-12-20T08:50:07;6.30;99.90
12901;DHT22;6518;50.930;5.344;2023-12-20T08:52:34;6.30;99.90
12901;DHT22;6518;50.930;5.344;2023-12-20T08:55:01;6.30;99.90
12901;DHT22;6518;50.930;5.344;2023-12-20T08:57:29;6.30;99.90
12901;DHT22;6518;50.930;5.344;2023-12-20T08:59:57;6.30;99.90
12901;DHT22;6518;50.930;5.344;2023-12-20T09:02:25;6.30;99.90
12901;DHT22;6518;50.930;5.344;2023-12-20T09:04:52;6.30;99.90
12901;DHT22;6518;50.930;5.344;2023-12-20T09:07:22;6.40;99.90
12901;DHT22;6518;50.930;5.344;2023-12-20T09:09:49;6.40;99.90
12901;DHT22;6518;50.930;5.344;2023-12-20T09:12:17;6.40;99.90
12901;DHT22;6518;50.930;5.344;2023-12-20T09:14:45;6.50;99.90
12901;DHT22;6518;50.930;5.344;2023-12-20T09:17:13;6.50;99.90
12901;DHT22;6518;50.930;5.344;2023-12-20T09:19:39;6.50;99.90
12901;DHT22;6518;50.930;5.344;2023-12-20T09:22:06;6.60;99.90
12901;DHT22;6518;50.930;5.344;2023-12-20T09:24:34;6.60;99.90
12901;DHT22;6518;50.930;5.344;2023-12-20T09:27:02;6.50;99.90
12901;DHT22;6518;50.930;5.344;2023-12-20T09:29:29;6.60;99.90
12901;DHT22;6518;50.930;5.344;2023-12-20T09:31:57;6.70;99.90
12901;DHT22;6518;50.930;5.344;2023-12-20T09:34:25;6.70;99.90
12901;DHT22;6518;50.930;5.344;2023-12-20T09:36:53;6.80;99.90
12901;DHT22;6518;50.930;5.344;2023-12-20T09:39:20;6.80;99.90
12901;DHT22;6518;50.930;5.344;2023-12-20T09:41:57;6.80;99.90
12901;DHT22;6518;50.930;5.344;2023-12-20T09:44:27;6.80;99.90
12901;DHT22;6518;50.930;5.344;2023-12-20T09:46:57;6.80;99.90
12901;DHT22;6518;50.930;5.344;2023-12-20T09:49:25;6.90;99.90
12901;DHT22;6518;50.930;5.344;2023-12-20T09:51:54;6.90;99.90
12901;DHT22;6518;50.930;5.344;2023-12-20T09:54:23;6.90;99.90
12901;DHT22;6518;50.930;5.344;2023-12-20T09:56:51;7.00;99.90
12901;DHT22;6518;50.930;5.344;2023-12-20T09:59:17;7.00;99.90
12901;DHT22;6518;50.930;5.344;2023-12-20T10:01:45;7.10;99.90
12901;DHT22;6518;50.930;5.344;2023-12-20T10:04:13;7.20;99.90
12901;DHT22;6518;50.930;5.344;2023-12-20T10:06:40;7.20;99.90
12901;DHT22;6518;50.930;5.344;2023-12-20T10:09:08;7.30;99.90
12901;DHT22;6518;50.930;5.344;2023-12-20T10:11:35;7.30;99.90
12901;DHT22;6518;50.930;5.344;2023-12-20T10:14:04;7.40;99.90
12901;DHT22;6518;50.930;5.344;2023-12-20T10:16:32;7.50;99.90
12901;DHT22;6518;50.930;5.344;2023-12-20T10:19:00;7.50;99.90
12901;DHT22;6518;50.930;5.344;2023-12-20T10:21:29;7.60;99.90
12901;DHT22;6518;50.930;5.344;2023-12-20T10:23:57;7.50;99.90
12901;DHT22;6518;50.930;5.344;2023-12-20T10:26:25;7.50;99.90
12901;DHT22;6518;50.930;5.344;2023-12-20T10:28:54;7.50;99.90
12901;DHT22;6518;50.930;5.344;2023-12-20T10:31:31;7.40;99.90
12901;DHT22;6518;50.930;5.344;2023-12-20T10:33:59;7.40;99.90
12901;DHT22;6518;50.930;5.344;2023-12-20T10:36:29;7.40;99.90
12901;DHT22;6518;50.930;5.344;2023-12-20T10:38:56;7.40;99.90
12901;DHT22;6518;50.930;5.344;2023-12-20T10:41:26;7.30;99.90
12901;DHT22;6518;50.930;5.344;2023-12-20T10:43:56;7.30;99.90
12901;DHT22;6518;50.930;5.344;2023-12-20T10:46:26;7.30;99.90
12901;DHT22;6518;50.930;5.344;2023-12-20T10:48:54;7.30;99.90
12901;DHT22;6518;50.930;5.344;2023-12-20T10:51:23;7.30;99.90
12901;DHT22;6518;50.930;5.344;2023-12-20T10:53:54;7.40;99.90
12901;DHT22;6518;50.930;5.344;2023-12-20T10:56:22;7.30;99.90
12901;DHT22;6518;50.930;5.344;2023-12-20T10:58:50;7.40;99.90
12901;DHT22;6518;50.930;5.344;2023-12-20T11:01:18;7.40;99.90
12901;DHT22;6518;50.930;5.344;2023-12-20T11:03:49;7.50;99.90
12901;DHT22;6518;50.930;5.344;2023-12-20T11:06:26;7.50;99.90
12901;DHT22;6518;50.930;5.344;2023-12-20T11:09:04;7.50;99.90
12901;DHT22;6518;50.930;5.344;2023-12-20T11:11:37;7.60;99.90
12901;DHT22;6518;50.930;5.344;2023-12-20T11:14:11;7.60;99.90
12901;DHT22;6518;50.930;5.344;2023-12-20T11:16:41;7.60;99.90
12901;DHT22;6518;50.930;5.344;2023-12-20T11:19:08;7.70;99.90
12901;DHT22;6518;50.930;5.344;2023-12-20T11:21:40;7.70;99.90
12901;DHT22;6518;50.930;5.344;2023-12-20T11:24:09;7.80;99.90
12901;DHT22;6518;50.930;5.344;2023-12-20T11:26:36;7.80;99.90
12901;DHT22;6518;50.930;5.344;2023-12-20T11:29:33;7.80;99.90
12901;DHT22;6518;50.930;5.344;2023-12-20T11:32:01;7.80;99.90
12901;DHT22;6518;50.930;5.344;2023-12-20T11:34:31;7.90;99.90
12901;DHT22;6518;50.930;5.344;2023-12-20T11:36:59;7.90;99.90
12901;DHT22;6518;50.930;5.344;2023-12-20T11:39:28;7.90;99.90
12901;DHT22;6518;50.930;5.344;2023-12-20T11:41:56;7.90;99.90
12901;DHT22;6518;50.930;5.344;2023-12-20T11:44:25;7.80;99.90
12901;DHT22;6518;50.930;5.344;2023-12-20T11:46:53;7.80;99.90
12901;DHT22;6518;50.930;5.344;2023-12-20T11:49:24;7.80;99.90
12901;DHT22;6518;50.930;5.344;2023-12-20T11:51:55;7.80;99.90
12901;DHT22;6518;50.930;5.344;2023-12-20T11:54:22;7.80;99.90
12901;DHT22;6518;50.930;5.344;2023-12-20T11:56:51;7.80;99.90
12901;DHT22;6518;50.930;5.344;2023-12-20T11:59:17;7.80;99.90
12901;DHT22;6518;50.930;5.344;2023-12-20T12:01:48;7.80;99.90
12901;DHT22;6518;50.930;5.344;2023-12-20T12:04:16;7.80;99.90
12901;DHT22;6518;50.930;5.344;2023-12-20T12:06:44;7.70;99.90
12901;DHT22;6518;50.930;5.344;2023-12-20T12:09:11;7.70;99.90
12901;DHT22;6518;50.930;5.344;2023-12-20T12:11:38;7.70;99.90
12901;DHT22;6518;50.930;5.344;2023-12-20T12:14:07;7.70;99.90
12901;DHT22;6518;50.930;5.344;2023-12-20T12:16:34;7.70;99.90
12901;DHT22;6518;50.930;5.344;2023-12-20T12:19:01;7.70;99.90
12901;DHT22;6518;50.930;5.344;2023-12-20T12:21:30;7.70;99.90
12901;DHT22;6518;50.930;5.344;2023-12-20T12:24:06;7.70;99.90
12901;DHT22;6518;50.930;5.344;2023-12-20T12:26:39;7.70;99.90
12901;DHT22;6518;50.930;5.344;2023-12-20T12:29:10;7.60;99.90
12901;DHT22;6518;50.930;5.344;2023-12-20T12:31:37;7.70;99.90
12901;DHT22;6518;50.930;5.344;2023-12-20T12:34:04;7.70;99.90
12901;DHT22;6518;50.930;5.344;2023-12-20T12:36:30;7.70;99.90
12901;DHT22;6518;50.930;5.344;2023-12-20T12:38:58;7.70;99.90
12901;DHT22;6518;50.930;5.344;2023-12-20T12:41:25;7.70;99.90
12901;DHT22;6518;50.930;5.344;2023-12-20T12:43:52;7.80;99.90
12901;DHT22;6518;50.930;5.344;2023-12-20T12:46:20;7.80;99.90
12901;DHT22;6518;50.930;5.344;2023-12-20T12:48:47;7.80;99.90
12901;DHT22;6518;50.930;5.344;2023-12-20T12:51:15;8.10;99.90
12901;DHT22;6518;50.930;5.344;2023-12-20T12:53:43;7.90;99.90
12901;DHT22;6518;50.930;5.344;2023-12-20T12:56:13;7.90;99.90
12901;DHT22;6518;50.930;5.344;2023-12-20T12:58:41;7.90;99.90
12901;DHT22;6518;50.930;5.344;2023-12-20T13:01:10;7.80;99.90
12901;DHT22;6518;50.930;5.344;2023-12-20T13:03:39;7.90;99.90
12901;DHT22;6518;50.930;5.344;2023-12-20T13:06:06;8.00;99.90
12901;DHT22;6518;50.930;5.344;2023-12-20T13:08:34;8.00;99.90
12901;DHT22;6518;50.930;5.344;2023-12-20T13:11:01;8.00;99.90
12901;DHT22;6518;50.930;5.344;2023-12-20T13:13:30;8.00;99.90
12901;DHT22;6518;50.930;5.344;2023-12-20T13:15:57;8.00;99.90
12901;DHT22;6518;50.930;5.344;2023-12-20T13:18:26;8.00;99.90
12901;DHT22;6518;50.930;5.344;2023-12-20T13:20:55;8.10;99.90
12901;DHT22;6518;50.930;5.344;2023-12-20T13:23:22;8.10;99.90
12901;DHT22;6518;50.930;5.344;2023-12-20T13:25:52;8.10;99.90
12901;DHT22;6518;50.930;5.344;2023-12-20T13:28:19;8.20;99.90
12901;DHT22;6518;50.930;5.344;2023-12-20T13:30:47;8.20;99.90
12901;DHT22;6518;50.930;5.344;2023-12-20T13:33:14;8.20;99.90
12901;DHT22;6518;50.930;5.344;2023-12-20T13:35:41;8.30;99.90
12901;DHT22;6518;50.930;5.344;2023-12-20T13:38:10;8.20;99.90
12901;DHT22;6518;50.930;5.344;2023-12-20T13:40:36;8.20;99.90
12901;DHT22;6518;50.930;5.344;2023-12-20T13:43:04;8.20;99.90
12901;DHT22;6518;50.930;5.344;2023-12-20T13:45:31;8.20;99.90
12901;DHT22;6518;50.930;5.344;2023-12-20T13:47:58;8.20;99.90
12901;DHT22;6518;50.930;5.344;2023-12-20T13:50:25;8.20;99.90
12901;DHT22;6518;50.930;5.344;2023-12-20T13:52:52;8.20;99.90
12901;DHT22;6518;50.930;5.344;2023-12-20T13:55:21;8.30;99.90
12901;DHT22;6518;50.930;5.344;2023-12-20T13:57:50;8.20;99.90
12901;DHT22;6518;50.930;5.344;2023-12-20T14:00:17;8.30;99.90
12901;DHT22;6518;50.930;5.344;2023-12-20T14:02:44;8.30;99.90
12901;DHT22;6518;50.930;5.344;2023-12-20T14:05:12;8.20;99.90
12901;DHT22;6518;50.930;5.344;2023-12-20T14:07:40;8.20;99.90
12901;DHT22;6518;50.930;5.344;2023-12-20T14:10:11;8.20;99.90
12901;DHT22;6518;50.930;5.344;2023-12-20T14:12:40;8.10;99.90
12901;DHT22;6518;50.930;5.344;2023-12-20T14:15:08;8.10;99.90
12901;DHT22;6518;50.930;5.344;2023-12-20T14:17:36;8.10;99.90
12901;DHT22;6518;50.930;5.344;2023-12-20T14:20:05;8.10;99.90
12901;DHT22;6518;50.930;5.344;2023-12-20T14:22:33;8.20;99.90
12901;DHT22;6518;50.930;5.344;2023-12-20T14:25:03;8.20;99.90
12901;DHT22;6518;50.930;5.344;2023-12-20T14:27:32;8.20;99.90
12901;DHT22;6518;50.930;5.344;2023-12-20T14:30:07;8.10;99.90
12901;DHT22;6518;50.930;5.344;2023-12-20T14:32:35;8.20;99.90
12901;DHT22;6518;50.930;5.344;2023-12-20T14:35:04;8.20;99.90
12901;DHT22;6518;50.930;5.344;2023-12-20T14:37:32;8.10;99.90
12901;DHT22;6518;50.930;5.344;2023-12-20T14:39:59;8.20;99.90
12901;DHT22;6518;50.930;5.344;2023-12-20T14:42:26;8.10;99.90
12901;DHT22;6518;50.930;5.344;2023-12-20T14:44:53;8.10;99.90
12901;DHT22;6518;50.930;5.344;2023-12-20T14:47:22;8.20;99.90
12901;DHT22;6518;50.930;5.344;2023-12-20T14:49:50;8.10;99.90
12901;DHT22;6518;50.930;5.344;2023-12-20T14:52:17;8.10;99.90
12901;DHT22;6518;50.930;5.344;2023-12-20T14:54:45;8.10;99.90
12901;DHT22;6518;50.930;5.344;2023-12-20T14:57:12;8.10;99.90
12901;DHT22;6518;50.930;5.344;2023-12-20T14:59:39;8.20;99.90
12901;DHT22;6518;50.930;5.344;2023-12-20T15:02:06;8.10;99.90
12901;DHT22;6518;50.930;5.344;2023-12-20T15:04:35;8.10;99.90
12901;DHT22;6518;50.930;5.344;2023-12-20T15:07:03;8.10;99.90
12901;DHT22;6518;50.930;5.344;2023-12-20T15:09:35;8.10;99.90
12901;DHT22;6518;50.930;5.344;2023-12-20T15:12:05;8.20;99.90
12901;DHT22;6518;50.930;5.344;2023-12-20T15:14:34;8.10;99.90
12901;DHT22;6518;50.930;5.344;2023-12-20T15:17:01;8.20;99.90
12901;DHT22;6518;50.930;5.344;2023-12-20T15:19:28;8.10;99.90
12901;DHT22;6518;50.930;5.344;2023-12-20T15:21:57;8.10;99.90
12901;DHT22;6518;50.930;5.344;2023-12-20T15:24:25;8.10;99.90
12901;DHT22;6518;50.930;5.344;2023-12-20T15:26:54;8.20;99.90
12901;DHT22;6518;50.930;5.344;2023-12-20T15:29:21;8.20;99.90
12901;DHT22;6518;50.930;5.344;2023-12-20T15:31:48;8.10;99.90
12901;DHT22;6518;50.930;5.344;2023-12-20T15:34:15;8.10;99.90
12901;DHT22;6518;50.930;5.344;2023-12-20T15:36:43;8.10;99.90
12901;DHT22;6518;50.930;5.344;2023-12-20T15:39:11;8.10;99.90
12901;DHT22;6518;50.930;5.344;2023-12-20T15:41:39;8.20;99.90
12901;DHT22;6518;50.930;5.344;2023-12-20T15:44:07;8.20;99.90
12901;DHT22;6518;50.930;5.344;2023-12-20T15:46:34;8.20;99.90
12901;DHT22;6518;50.930;5.344;2023-12-20T15:49:00;8.20;99.90
12901;DHT22;6518;50.930;5.344;2023-12-20T15:51:28;8.20;99.90
12901;DHT22;6518;50.930;5.344;2023-12-20T15:53:55;8.20;99.90
12901;DHT22;6518;50.930;5.344;2023-12-20T15:56:23;8.20;99.90
12901;DHT22;6518;50.930;5.344;2023-12-20T15:58:50;8.20;99.90
12901;DHT22;6518;50.930;5.344;2023-12-20T16:01:20;8.20;99.90
12901;DHT22;6518;50.930;5.344;2023-12-20T16:03:47;8.20;99.90
12901;DHT22;6518;50.930;5.344;2023-12-20T16:06:13;8.20;99.90